| time (UTC) | temp C | wind direction | speed KPH | gust KPH | rain 1hr cm | rain 24hr cm | rain mn cm | humidity % | barometer mb |
| 20260508151759 | 11 | 98 | 1.6 | 6.4 | 0.00 | 0.20 | 0.13 | 87 | 1012.8 |
| 20260508150546 | 11 | 201 | 0.0 | 6.4 | 0.00 | 0.20 | 0.13 | 88 | 1012.9 |
| 20260508145328 | 10 | 142 | 0.0 | 6.4 | 0.00 | 0.20 | 0.13 | 89 | 1012.9 |
| 20260508144123 | 10 | 81 | 0.0 | 4.8 | 0.00 | 0.20 | 0.13 | 89 | 1013.3 |
| 20260508142911 | 10 | 94 | 0.0 | 4.8 | 0.10 | 0.20 | 0.13 | 88 | 1013.4 |
| 20260508141723 | 10 | 137 | 0.0 | 4.8 | 0.15 | 0.20 | 0.13 | 88 | 1013.3 |
| 20260508140530 | 10 | 315 | 0.0 | 11.3 | 0.00 | 0.15 | 0.08 | 88 | 1013.7 |
| 20260508135346 | 10 | 140 | 0.0 | 11.3 | 0.00 | 0.13 | 0.05 | 88 | 1013.7 |
| 20260508134132 | 10 | 0 | 0.0 | 1.6 | 0.00 | 0.13 | 0.05 | 88 | 1013.5 |
| 20260508132856 | 10 | 0 | 0.0 | 0.0 | 0.00 | 0.13 | 0.05 | 87 | 1013.3 |
| 20260508131632 | 10 | 268 | 0.0 | 9.7 | 0.00 | 0.10 | 0.03 | 86 | 1013.2 |
| 20260508130453 | 10 | 232 | 0.0 | 4.8 | 0.00 | 0.10 | 0.03 | 85 | 1013.1 |
| 20260508125310 | 10 | 84 | 0.0 | 1.6 | 0.00 | 0.10 | 0.03 | 85 | 1013.3 |
| 20260508124117 | 10 | 245 | 0.0 | 9.7 | 0.00 | 0.10 | 0.03 | 85 | 1013.3 |
| 20260508122900 | 10 | 70 | 0.0 | 4.8 | 0.00 | 0.10 | 0.03 | 87 | 1013.3 |
| 20260508121645 | 10 | 198 | 0.0 | 3.2 | 0.00 | 0.10 | 0.03 | 87 | 1013.2 |
| 20260508120455 | 10 | 219 | 0.0 | 4.8 | 0.00 | 0.10 | 0.03 | 87 | 1013.1 |
| 20260508115311 | 10 | 238 | 0.0 | 3.2 | 0.00 | 0.10 | 0.03 | 89 | 1013.2 |
| 20260508114106 | 9 | 120 | 0.0 | 3.2 | 0.00 | 0.10 | 0.03 | 89 | 1012.9 |
| 20260508112930 | 8 | 130 | 0.0 | 1.6 | 0.00 | 0.10 | 0.03 | 90 | 1012.9 |
| 20260508111703 | 8 | 227 | 0.0 | 4.8 | 0.00 | 0.10 | 0.03 | 90 | 1012.7 |
| 20260508110441 | 8 | 146 | 0.0 | 3.2 | 0.00 | 0.10 | 0.03 | 90 | 1012.7 |
| 20260508105309 | 8 | 143 | 0.0 | 11.3 | 0.00 | 0.10 | 0.03 | 91 | 1012.7 |
| 20260508104102 | 8 | 69 | 0.0 | 11.3 | 0.00 | 0.10 | 0.03 | 91 | 1012.7 |
| 20260508102905 | 7 | 100 | 0.0 | 1.6 | 0.00 | 0.10 | 0.03 | 91 | 1012.7 |
| 20260508101710 | 7 | 168 | 0.0 | 3.2 | 0.00 | 0.10 | 0.03 | 91 | 1012.6 |
| 20260508100430 | 7 | 168 | 0.0 | 3.2 | 0.00 | 0.08 | 0.00 | 91 | 1012.7 |
| 20260508095150 | 7 | 200 | 0.0 | 0.0 | 0.00 | 0.08 | 0.00 | 91 | 1012.6 |
| 20260508093918 | 6 | 200 | 0.0 | 0.0 | 0.00 | 0.08 | 0.00 | 90 | 1012.8 |
| 20260508092728 | 7 | 200 | 0.0 | 0.0 | 0.00 | 0.08 | 0.00 | 90 | 1013.0 |
| 20260508091530 | 7 | 200 | 0.0 | 0.0 | 0.00 | 0.08 | 0.00 | 91 | 1013.0 |
| 20260508090328 | 6 | 200 | 0.0 | 0.0 | 0.00 | 0.08 | 0.00 | 90 | 1012.9 |
| 20260508085135 | 6 | 200 | 0.0 | 0.0 | 0.00 | 0.08 | 0.00 | 90 | 1012.9 |
| 20260508083857 | 6 | 200 | 0.0 | 0.0 | 0.00 | 0.08 | 0.00 | 90 | 1012.8 |
| 20260508082644 | 6 | 200 | 0.0 | 1.6 | 0.00 | 0.08 | 0.00 | 91 | 1012.9 |
| 20260508081426 | 6 | 200 | 0.0 | 1.6 | 0.00 | 0.08 | 0.00 | 90 | 1012.8 |
| 20260508080214 | 6 | 200 | 0.0 | 0.0 | 0.00 | 0.08 | 0.00 | 90 | 1012.9 |
| 20260508074933 | 6 | 225 | 0.0 | 3.2 | 0.00 | 0.08 | 0.00 | 90 | 1012.8 |
| 20260508073747 | 6 | 241 | 0.0 | 0.0 | 0.00 | 0.08 | 0.00 | 90 | 1012.8 |
| 20260508072609 | 6 | 118 | 0.0 | 0.0 | 0.00 | 0.08 | 0.00 | 90 | 1012.7 |
| 20260508071403 | 6 | 131 | 0.0 | 1.6 | 0.00 | 0.08 | 0.00 | 90 | 1012.8 |
| 20260508070157 | 6 | 131 | 0.0 | 1.6 | 0.00 | 0.08 | 0.00 | 90 | 1012.9 |
| 20260508063748 | 6 | 131 | 0.0 | 3.2 | 0.00 | 0.08 | 0.00 | 90 | 1013.1 |
| 20260508062617 | 6 | 267 | 0.0 | 0.0 | 0.00 | 0.08 | 0.00 | 90 | 1013.2 |
| 20260508061424 | 6 | 267 | 0.0 | 0.0 | 0.00 | 0.08 | 0.00 | 89 | 1013.1 |
| 20260508060253 | 6 | 267 | 0.0 | 1.6 | 0.00 | 0.08 | 0.00 | 90 | 1013.2 |
| 20260508055039 | 6 | 267 | 0.0 | 0.0 | 0.00 | 0.08 | 0.00 | 90 | 1013.3 |
| 20260508053843 | 6 | 267 | 0.0 | 0.0 | 0.00 | 0.08 | 0.00 | 90 | 1013.5 |
| 20260508052708 | 6 | 267 | 0.0 | 0.0 | 0.00 | 0.08 | 0.00 | 90 | 1013.5 |
| 20260508051517 | 6 | 267 | 0.0 | 0.0 | 0.00 | 0.08 | 0.00 | 90 | 1013.5 |
| 20260508050314 | 6 | 267 | 0.0 | 0.0 | 0.00 | 0.08 | 0.00 | 89 | 1013.5 |
| 20260508045053 | 6 | 267 | 0.0 | 0.0 | 0.00 | 0.08 | 0.00 | 89 | 1013.5 |
| 20260508043829 | 7 | 267 | 0.0 | 0.0 | 0.00 | 0.08 | 0.00 | 89 | 1013.4 |
| 20260508042630 | 7 | 267 | 0.0 | 0.0 | 0.00 | 0.08 | 0.00 | 89 | 1013.5 |
| 20260508041437 | 7 | 267 | 0.0 | 0.0 | 0.00 | 0.08 | 0.00 | 89 | 1013.5 |
| 20260508040226 | 7 | 267 | 0.0 | 3.2 | 0.00 | 0.08 | 0.00 | 88 | 1013.5 |
| 20260508035025 | 7 | 267 | 0.0 | 0.0 | 0.00 | 0.08 | 0.08 | 88 | 1013.6 |
| 20260508033805 | 7 | 267 | 0.0 | 0.0 | 0.00 | 0.08 | 0.08 | 88 | 1013.5 |
| 20260508032632 | 7 | 267 | 0.0 | 0.0 | 0.00 | 0.08 | 0.08 | 88 | 1013.7 |
| 20260508031421 | 8 | 267 | 0.0 | 0.0 | 0.00 | 0.08 | 0.08 | 87 | 1013.8 |
| 20260508030150 | 8 | 267 | 0.0 | 3.2 | 0.00 | 0.08 | 0.08 | 86 | 1014.1 |
| 20260508025005 | 8 | 267 | 0.0 | 0.0 | 0.10 | 0.08 | 0.08 | 84 | 1014.1 |
| 20260508023757 | 9 | 258 | 1.6 | 0.0 | 0.10 | 0.05 | 0.05 | 82 | 1014.1 |
| 20260508022551 | 10 | 56 | 0.0 | 4.8 | 0.51 | 0.05 | 0.05 | 80 | 1014.0 |
| 20260508021330 | 11 | 348 | 1.6 | 11.3 | 0.00 | 0.00 | 0.00 | 74 | 1014.0 |
| 20260508020053 | 10 | 209 | 0.0 | 9.7 | 0.00 | 0.00 | 0.00 | 73 | 1012.9 |
| 20260508014822 | 10 | 121 | 0.0 | 11.3 | 0.00 | 0.00 | 0.00 | 74 | 1012.7 |
| 20260508013601 | 10 | 152 | 0.0 | 0.0 | 0.00 | 0.00 | 0.00 | 75 | 1012.5 |
| 20260508012406 | 10 | 58 | 0.0 | 3.2 | 0.00 | 0.00 | 0.00 | 74 | 1012.4 |
| 20260508011236 | 10 | 174 | 0.0 | 6.4 | 0.00 | 0.00 | 0.00 | 73 | 1012.5 |
| 20260508010036 | 10 | 149 | 0.0 | 6.4 | 0.00 | 0.00 | 0.00 | 72 | 1012.8 |
| 20260508004813 | 10 | 142 | 0.0 | 3.2 | 0.00 | 0.00 | 0.00 | 71 | 1013.0 |
| 20260508003618 | 11 | 165 | 0.0 | 12.9 | 0.00 | 0.00 | 0.00 | 67 | 1012.9 |
| 20260508002428 | 11 | 114 | 0.0 | 12.9 | 0.00 | 0.00 | 0.00 | 67 | 1012.9 |
| 20260508001237 | 11 | 127 | 0.0 | 6.4 | 0.00 | 0.00 | 0.00 | 64 | 1013.0 |
| 20260508000041 | 11 | 119 | 0.0 | 6.4 | 0.00 | 0.00 | 0.00 | 64 | 1013.2 |
| 20260507234858 | 12 | 65 | 1.6 | 14.5 | 0.00 | 0.00 | 0.00 | 65 | 1013.3 |
| 20260507233726 | 12 | 119 | 1.6 | 14.5 | 0.00 | 0.00 | 0.00 | 61 | 1013.4 |
| 20260507232452 | 12 | 127 | 1.6 | 12.9 | 0.00 | 0.00 | 0.00 | 59 | 1013.4 |
| 20260507231248 | 12 | 35 | 1.6 | 9.7 | 0.00 | 0.00 | 0.00 | 60 | 1013.3 |
| 20260507230010 | 12 | 250 | 0.0 | 4.8 | 0.00 | 0.00 | 0.00 | 58 | 1013.5 |
| 20260507224748 | 12 | 26 | 0.0 | 6.4 | 0.00 | 0.00 | 0.00 | 56 | 1013.6 |
| 20260507223523 | 12 | 267 | 1.6 | 14.5 | 0.00 | 0.00 | 0.00 | 56 | 1013.8 |
| 20260507222321 | 12 | 229 | 0.0 | 12.9 | 0.00 | 0.00 | 0.00 | 58 | 1014.1 |
| 20260507221105 | 12 | 13 | 1.6 | 22.5 | 0.00 | 0.00 | 0.00 | 57 | 1014.2 |
| 20260507215903 | 12 | 348 | 1.6 | 9.7 | 0.00 | 0.00 | 0.00 | 58 | 1014.3 |
| 20260507214732 | 12 | 351 | 0.0 | 4.8 | 0.00 | 0.00 | 0.00 | 59 | 1014.2 |
| 20260507213455 | 12 | 302 | 0.0 | 0.0 | 0.00 | 0.00 | 0.00 | 59 | 1014.2 |
| 20260507212219 | 12 | 309 | 0.0 | 9.7 | 0.00 | 0.00 | 0.00 | 57 | 1014.1 |
| 20260507210957 | 13 | 9 | 0.0 | 17.7 | 0.00 | 0.00 | 0.00 | 56 | 1014.2 |
| 20260507205748 | 13 | 342 | 0.0 | 14.5 | 0.00 | 0.00 | 0.00 | 50 | 1014.1 |
| 20260507204536 | 13 | 317 | 0.0 | 9.7 | 0.00 | 0.00 | 0.00 | 49 | 1013.8 |
| 20260507203407 | 14 | 245 | 1.6 | 14.5 | 0.00 | 0.00 | 0.00 | 43 | 1013.7 |
| 20260507202219 | 15 | 115 | 1.6 | 14.5 | 0.00 | 0.00 | 0.00 | 45 | 1013.5 |
| 20260507201039 | 15 | 305 | 1.6 | 14.5 | 0.00 | 0.00 | 0.00 | 44 | 1013.7 |
| 20260507195854 | 15 | 302 | 4.8 | 17.7 | 0.00 | 0.00 | 0.00 | 41 | 1013.6 |
| 20260507194710 | 15 | 351 | 1.6 | 17.7 | 0.00 | 0.00 | 0.00 | 40 | 1014.0 |
| 20260507193525 | 15 | 5 | 1.6 | 17.7 | 0.00 | 0.00 | 0.00 | 42 | 1014.1 |
| 20260507192305 | 15 | 329 | 1.6 | 11.3 | 0.00 | 0.00 | 0.00 | 42 | 1014.3 |
| 20260507191023 | 15 | 342 | 1.6 | 19.3 | 0.00 | 0.00 | 0.00 | 43 | 1014.3 |
| 20260507185800 | 15 | 313 | 4.8 | 17.7 | 0.00 | 0.00 | 0.00 | 42 | 1014.4 |
| 20260507184614 | 15 | 332 | 1.6 | 14.5 | 0.00 | 0.00 | 0.00 | 47 | 1014.4 |
| 20260507183441 | 15 | 307 | 4.8 | 12.9 | 0.00 | 0.00 | 0.00 | 46 | 1014.4 |
| 20260507182208 | 15 | 211 | 1.6 | 25.7 | 0.00 | 0.00 | 0.00 | 47 | 1014.7 |
| 20260507180943 | 15 | 327 | 4.8 | 25.7 | 0.00 | 0.00 | 0.00 | 41 | 1014.7 |
| 20260507175744 | 15 | 243 | 1.6 | 12.9 | 0.00 | 0.00 | 0.00 | 45 | 1014.9 |
| 20260507174548 | 13 | 333 | 4.8 | 17.7 | 0.00 | 0.00 | 0.00 | 44 | 1015.0 |
| 20260507173412 | 15 | 19 | 1.6 | 22.5 | 0.00 | 0.00 | 0.00 | 49 | 1015.1 |
| 20260507172154 | 14 | 335 | 4.8 | 22.5 | 0.00 | 0.00 | 0.00 | 45 | 1015.3 |
| 20260507170943 | 14 | 327 | 1.6 | 29.0 | 0.00 | 0.00 | 0.00 | 48 | 1015.4 |
| 20260507165741 | 14 | 51 | 4.8 | 29.0 | 0.00 | 0.00 | 0.00 | 51 | 1015.7 |
| 20260507164551 | 13 | 5 | 1.6 | 24.1 | 0.00 | 0.00 | 0.00 | 44 | 1016.0 |
| 20260507163316 | 14 | 21 | 1.6 | 19.3 | 0.00 | 0.00 | 0.00 | 50 | 1016.2 |
| 20260507162037 | 13 | 350 | 6.4 | 19.3 | 0.00 | 0.00 | 0.00 | 44 | 1016.4 |
| 20260507160804 | 13 | 296 | 6.4 | 24.1 | 0.00 | 0.00 | 0.00 | 50 | 1016.3 |
| 20260507155548 | 12 | 346 | 6.4 | 24.1 | 0.00 | 0.00 | 0.00 | 47 | 1016.4 |
| 20260507154347 | 12 | 331 | 1.6 | 24.1 | 0.00 | 0.00 | 0.00 | 51 | 1016.3 |
| 20260507153357 | 12 | 346 | 1.6 | 11.3 | 0.00 | 0.00 | 0.00 | 56 | 1016.4 |
| 20260507153108 | 12 | 346 | 1.6 | 11.3 | 0.00 | 0.00 | 0.00 | 56 | 1016.4 |
| 20260507152230 | 12 | 281 | 1.6 | 17.7 | 0.00 | 0.00 | 0.00 | 50 | 1016.2 |